sensor_id;sensor_type;location;lat;lon;timestamp;P1;durP1;ratioP1;P2;durP2;ratioP2
69979;SDS011;57318;56.232;43.944;2023-06-22T00:02:00;13.87;;;5.43;;
69979;SDS011;57318;56.232;43.944;2023-06-22T00:06:52;10.93;;;4.95;;
69979;SDS011;57318;56.232;43.944;2023-06-22T00:09:18;8.10;;;4.53;;
69979;SDS011;57318;56.232;43.944;2023-06-22T00:11:43;14.37;;;5.73;;
69979;SDS011;57318;56.232;43.944;2023-06-22T00:14:09;11.40;;;6.13;;
69979;SDS011;57318;56.232;43.944;2023-06-22T00:16:37;13.80;;;6.00;;
69979;SDS011;57318;56.232;43.944;2023-06-22T00:19:03;13.35;;;6.03;;
69979;SDS011;57318;56.232;43.944;2023-06-22T00:21:29;10.57;;;5.80;;
69979;SDS011;57318;56.232;43.944;2023-06-22T00:23:56;9.27;;;5.15;;
69979;SDS011;57318;56.232;43.944;2023-06-22T00:26:22;11.02;;;4.90;;
69979;SDS011;57318;56.232;43.944;2023-06-22T00:28:48;10.25;;;5.13;;
69979;SDS011;57318;56.232;43.944;2023-06-22T00:31:14;9.47;;;4.80;;
69979;SDS011;57318;56.232;43.944;2023-06-22T00:33:39;10.17;;;4.80;;
69979;SDS011;57318;56.232;43.944;2023-06-22T00:36:05;10.40;;;4.63;;
69979;SDS011;57318;56.232;43.944;2023-06-22T00:38:33;8.90;;;4.13;;
69979;SDS011;57318;56.232;43.944;2023-06-22T00:40:59;10.15;;;4.63;;
69979;SDS011;57318;56.232;43.944;2023-06-22T00:43:25;9.83;;;4.60;;
69979;SDS011;57318;56.232;43.944;2023-06-22T00:45:51;8.83;;;4.23;;
69979;SDS011;57318;56.232;43.944;2023-06-22T00:48:17;9.02;;;3.97;;
69979;SDS011;57318;56.232;43.944;2023-06-22T00:50:43;13.05;;;4.03;;
69979;SDS011;57318;56.232;43.944;2023-06-22T00:53:09;6.97;;;2.97;;
69979;SDS011;57318;56.232;43.944;2023-06-22T00:55:42;6.72;;;3.38;;
69979;SDS011;57318;56.232;43.944;2023-06-22T00:58:09;6.13;;;2.97;;
69979;SDS011;57318;56.232;43.944;2023-06-22T01:00:36;7.03;;;3.10;;
69979;SDS011;57318;56.232;43.944;2023-06-22T01:03:03;5.28;;;3.00;;
69979;SDS011;57318;56.232;43.944;2023-06-22T01:05:34;6.90;;;2.95;;
69979;SDS011;57318;56.232;43.944;2023-06-22T01:08:06;7.97;;;3.08;;
69979;SDS011;57318;56.232;43.944;2023-06-22T01:13:45;7.65;;;4.00;;
69979;SDS011;57318;56.232;43.944;2023-06-22T01:18:33;7.20;;;3.80;;
69979;SDS011;57318;56.232;43.944;2023-06-22T01:21:06;5.30;;;3.00;;
69979;SDS011;57318;56.232;43.944;2023-06-22T01:28:48;6.05;;;3.30;;
69979;SDS011;57318;56.232;43.944;2023-06-22T01:31:16;7.00;;;3.03;;
69979;SDS011;57318;56.232;43.944;2023-06-22T01:33:46;4.05;;;2.97;;
69979;SDS011;57318;56.232;43.944;2023-06-22T01:36:16;7.45;;;3.65;;
69979;SDS011;57318;56.232;43.944;2023-06-22T01:38:42;5.90;;;3.40;;
69979;SDS011;57318;56.232;43.944;2023-06-22T01:41:10;8.23;;;4.00;;
69979;SDS011;57318;56.232;43.944;2023-06-22T01:43:36;7.10;;;4.32;;
69979;SDS011;57318;56.232;43.944;2023-06-22T01:46:02;8.93;;;4.20;;
69979;SDS011;57318;56.232;43.944;2023-06-22T01:48:29;11.27;;;4.70;;
69979;SDS011;57318;56.232;43.944;2023-06-22T01:50:56;11.43;;;5.70;;
69979;SDS011;57318;56.232;43.944;2023-06-22T01:53:22;12.10;;;4.67;;
69979;SDS011;57318;56.232;43.944;2023-06-22T01:55:48;7.22;;;4.10;;
69979;SDS011;57318;56.232;43.944;2023-06-22T01:58:14;14.10;;;4.10;;
69979;SDS011;57318;56.232;43.944;2023-06-22T02:03:14;7.55;;;3.58;;
69979;SDS011;57318;56.232;43.944;2023-06-22T02:08:47;8.85;;;3.20;;
69979;SDS011;57318;56.232;43.944;2023-06-22T02:11:17;8.02;;;3.05;;
69979;SDS011;57318;56.232;43.944;2023-06-22T02:13:46;7.78;;;3.00;;
69979;SDS011;57318;56.232;43.944;2023-06-22T02:16:12;5.32;;;3.28;;
69979;SDS011;57318;56.232;43.944;2023-06-22T02:18:49;5.78;;;3.28;;
69979;SDS011;57318;56.232;43.944;2023-06-22T02:21:17;15.70;;;5.65;;
69979;SDS011;57318;56.232;43.944;2023-06-22T02:23:44;11.52;;;6.22;;
69979;SDS011;57318;56.232;43.944;2023-06-22T02:26:09;14.27;;;8.13;;
69979;SDS011;57318;56.232;43.944;2023-06-22T02:28:36;17.73;;;8.23;;
69979;SDS011;57318;56.232;43.944;2023-06-22T02:31:09;23.47;;;7.50;;
69979;SDS011;57318;56.232;43.944;2023-06-22T02:33:34;22.63;;;9.02;;
69979;SDS011;57318;56.232;43.944;2023-06-22T02:36:00;20.50;;;8.90;;
69979;SDS011;57318;56.232;43.944;2023-06-22T02:38:31;21.25;;;9.82;;
69979;SDS011;57318;56.232;43.944;2023-06-22T02:40:58;23.05;;;10.30;;
69979;SDS011;57318;56.232;43.944;2023-06-22T02:43:25;21.40;;;10.67;;
69979;SDS011;57318;56.232;43.944;2023-06-22T02:45:51;27.83;;;11.35;;
69979;SDS011;57318;56.232;43.944;2023-06-22T02:48:17;25.33;;;11.30;;
69979;SDS011;57318;56.232;43.944;2023-06-22T02:50:42;27.80;;;12.30;;
69979;SDS011;57318;56.232;43.944;2023-06-22T02:53:08;24.37;;;11.60;;
69979;SDS011;57318;56.232;43.944;2023-06-22T02:55:34;20.73;;;10.17;;
69979;SDS011;57318;56.232;43.944;2023-06-22T02:57:59;17.43;;;7.97;;
69979;SDS011;57318;56.232;43.944;2023-06-22T03:00:29;8.93;;;5.65;;
69979;SDS011;57318;56.232;43.944;2023-06-22T03:02:56;12.05;;;5.82;;
69979;SDS011;57318;56.232;43.944;2023-06-22T03:07:48;15.27;;;7.32;;
69979;SDS011;57318;56.232;43.944;2023-06-22T03:10:14;12.38;;;7.07;;
69979;SDS011;57318;56.232;43.944;2023-06-22T03:12:41;12.10;;;7.28;;
69979;SDS011;57318;56.232;43.944;2023-06-22T03:15:09;15.10;;;6.38;;
69979;SDS011;57318;56.232;43.944;2023-06-22T03:17:37;10.90;;;6.22;;
69979;SDS011;57318;56.232;43.944;2023-06-22T03:20:06;10.80;;;4.93;;
69979;SDS011;57318;56.232;43.944;2023-06-22T03:22:34;9.02;;;5.22;;
69979;SDS011;57318;56.232;43.944;2023-06-22T03:25:01;13.82;;;5.90;;
69979;SDS011;57318;56.232;43.944;2023-06-22T03:27:31;13.70;;;6.28;;
69979;SDS011;57318;56.232;43.944;2023-06-22T03:29:57;10.68;;;5.97;;
69979;SDS011;57318;56.232;43.944;2023-06-22T03:32:23;8.90;;;5.50;;
69979;SDS011;57318;56.232;43.944;2023-06-22T03:34:49;14.13;;;6.30;;
69979;SDS011;57318;56.232;43.944;2023-06-22T03:37:15;17.60;;;6.90;;
69979;SDS011;57318;56.232;43.944;2023-06-22T03:39:41;12.67;;;6.83;;
69979;SDS011;57318;56.232;43.944;2023-06-22T03:42:07;22.40;;;7.10;;
69979;SDS011;57318;56.232;43.944;2023-06-22T03:44:34;18.00;;;7.15;;
69979;SDS011;57318;56.232;43.944;2023-06-22T03:47:02;15.23;;;7.43;;
69979;SDS011;57318;56.232;43.944;2023-06-22T03:49:29;14.50;;;6.60;;
69979;SDS011;57318;56.232;43.944;2023-06-22T03:51:55;26.27;;;12.70;;
69979;SDS011;57318;56.232;43.944;2023-06-22T03:54:21;15.97;;;6.70;;
69979;SDS011;57318;56.232;43.944;2023-06-22T03:56:47;14.10;;;5.77;;
69979;SDS011;57318;56.232;43.944;2023-06-22T03:59:12;16.30;;;6.37;;
69979;SDS011;57318;56.232;43.944;2023-06-22T04:01:41;14.77;;;5.63;;
69979;SDS011;57318;56.232;43.944;2023-06-22T04:04:06;13.50;;;5.67;;
69979;SDS011;57318;56.232;43.944;2023-06-22T04:06:32;11.80;;;5.63;;
69979;SDS011;57318;56.232;43.944;2023-06-22T04:08:59;15.27;;;5.80;;
69979;SDS011;57318;56.232;43.944;2023-06-22T04:11:26;11.43;;;5.75;;
69979;SDS011;57318;56.232;43.944;2023-06-22T04:13:52;14.23;;;6.33;;
69979;SDS011;57318;56.232;43.944;2023-06-22T04:16:17;13.53;;;5.73;;
69979;SDS011;57318;56.232;43.944;2023-06-22T04:18:43;8.20;;;5.10;;
69979;SDS011;57318;56.232;43.944;2023-06-22T04:21:09;13.40;;;5.37;;
69979;SDS011;57318;56.232;43.944;2023-06-22T04:26:01;11.48;;;5.18;;
69979;SDS011;57318;56.232;43.944;2023-06-22T04:28:26;11.33;;;5.10;;
69979;SDS011;57318;56.232;43.944;2023-06-22T04:30:52;11.13;;;5.80;;
69979;SDS011;57318;56.232;43.944;2023-06-22T04:33:22;15.70;;;6.43;;
69979;SDS011;57318;56.232;43.944;2023-06-22T04:35:48;14.10;;;6.53;;
69979;SDS011;57318;56.232;43.944;2023-06-22T04:38:13;27.40;;;7.00;;
69979;SDS011;57318;56.232;43.944;2023-06-22T04:40:39;12.10;;;6.55;;
69979;SDS011;57318;56.232;43.944;2023-06-22T04:43:06;14.88;;;6.57;;
69979;SDS011;57318;56.232;43.944;2023-06-22T04:45:32;15.65;;;6.85;;
69979;SDS011;57318;56.232;43.944;2023-06-22T04:47:58;14.85;;;7.05;;
69979;SDS011;57318;56.232;43.944;2023-06-22T04:50:24;15.30;;;7.67;;
69979;SDS011;57318;56.232;43.944;2023-06-22T04:52:50;20.43;;;8.60;;
69979;SDS011;57318;56.232;43.944;2023-06-22T04:55:18;15.70;;;6.75;;
69979;SDS011;57318;56.232;43.944;2023-06-22T04:57:46;16.50;;;7.50;;
69979;SDS011;57318;56.232;43.944;2023-06-22T05:00:17;16.08;;;7.60;;
69979;SDS011;57318;56.232;43.944;2023-06-22T05:02:46;10.68;;;5.30;;
69979;SDS011;57318;56.232;43.944;2023-06-22T05:05:12;10.50;;;4.95;;
69979;SDS011;57318;56.232;43.944;2023-06-22T05:10:08;9.90;;;4.60;;
69979;SDS011;57318;56.232;43.944;2023-06-22T05:12:35;13.95;;;5.03;;
69979;SDS011;57318;56.232;43.944;2023-06-22T05:15:01;18.10;;;5.17;;
69979;SDS011;57318;56.232;43.944;2023-06-22T05:17:31;17.45;;;5.15;;
69979;SDS011;57318;56.232;43.944;2023-06-22T05:19:56;18.80;;;5.70;;
69979;SDS011;57318;56.232;43.944;2023-06-22T05:22:22;12.73;;;6.07;;
69979;SDS011;57318;56.232;43.944;2023-06-22T05:24:48;14.47;;;6.03;;
69979;SDS011;57318;56.232;43.944;2023-06-22T05:27:14;8.53;;;4.23;;
69979;SDS011;57318;56.232;43.944;2023-06-22T05:29:39;8.55;;;3.92;;
69979;SDS011;57318;56.232;43.944;2023-06-22T05:32:06;5.10;;;3.28;;
69979;SDS011;57318;56.232;43.944;2023-06-22T05:34:32;9.85;;;4.05;;
69979;SDS011;57318;56.232;43.944;2023-06-22T05:36:58;8.95;;;4.32;;
69979;SDS011;57318;56.232;43.944;2023-06-22T05:39:24;11.90;;;3.95;;
69979;SDS011;57318;56.232;43.944;2023-06-22T05:41:50;8.88;;;3.63;;
69979;SDS011;57318;56.232;43.944;2023-06-22T05:44:17;8.05;;;5.03;;
69979;SDS011;57318;56.232;43.944;2023-06-22T05:46:43;10.02;;;4.60;;
69979;SDS011;57318;56.232;43.944;2023-06-22T05:49:12;8.82;;;5.63;;
69979;SDS011;57318;56.232;43.944;2023-06-22T05:51:38;8.88;;;4.65;;
69979;SDS011;57318;56.232;43.944;2023-06-22T05:56:30;7.68;;;4.35;;
69979;SDS011;57318;56.232;43.944;2023-06-22T05:58:56;11.90;;;4.93;;
69979;SDS011;57318;56.232;43.944;2023-06-22T06:01:22;8.93;;;4.70;;
69979;SDS011;57318;56.232;43.944;2023-06-22T06:03:47;9.97;;;5.50;;
69979;SDS011;57318;56.232;43.944;2023-06-22T06:06:15;8.65;;;3.67;;
69979;SDS011;57318;56.232;43.944;2023-06-22T06:08:41;4.38;;;3.47;;
69979;SDS011;57318;56.232;43.944;2023-06-22T06:11:07;7.47;;;3.43;;
69979;SDS011;57318;56.232;43.944;2023-06-22T06:13:32;5.93;;;3.50;;
69979;SDS011;57318;56.232;43.944;2023-06-22T06:15:58;4.90;;;3.60;;
69979;SDS011;57318;56.232;43.944;2023-06-22T06:18:24;5.55;;;3.63;;
69979;SDS011;57318;56.232;43.944;2023-06-22T06:20:50;6.53;;;4.23;;
69979;SDS011;57318;56.232;43.944;2023-06-22T06:23:16;8.30;;;4.60;;
69979;SDS011;57318;56.232;43.944;2023-06-22T06:25:42;5.13;;;4.13;;
69979;SDS011;57318;56.232;43.944;2023-06-22T06:28:07;6.28;;;4.05;;
69979;SDS011;57318;56.232;43.944;2023-06-22T06:30:33;9.57;;;3.70;;
69979;SDS011;57318;56.232;43.944;2023-06-22T06:33:00;8.75;;;4.20;;
69979;SDS011;57318;56.232;43.944;2023-06-22T06:35:25;11.90;;;7.80;;
69979;SDS011;57318;56.232;43.944;2023-06-22T06:37:51;16.47;;;8.33;;
69979;SDS011;57318;56.232;43.944;2023-06-22T06:40:17;13.47;;;7.60;;
69979;SDS011;57318;56.232;43.944;2023-06-22T06:42:45;11.70;;;6.78;;
69979;SDS011;57318;56.232;43.944;2023-06-22T06:45:15;6.63;;;4.68;;
69979;SDS011;57318;56.232;43.944;2023-06-22T06:47:41;7.60;;;4.20;;
69979;SDS011;57318;56.232;43.944;2023-06-22T06:50:08;6.38;;;4.30;;
69979;SDS011;57318;56.232;43.944;2023-06-22T06:52:34;7.03;;;4.55;;
69979;SDS011;57318;56.232;43.944;2023-06-22T06:55:00;5.63;;;3.93;;
69979;SDS011;57318;56.232;43.944;2023-06-22T06:57:27;6.65;;;4.25;;
69979;SDS011;57318;56.232;43.944;2023-06-22T06:59:57;6.05;;;4.03;;
69979;SDS011;57318;56.232;43.944;2023-06-22T07:02:23;11.73;;;3.83;;
69979;SDS011;57318;56.232;43.944;2023-06-22T07:04:49;6.63;;;4.28;;
69979;SDS011;57318;56.232;43.944;2023-06-22T07:07:15;5.70;;;3.47;;
69979;SDS011;57318;56.232;43.944;2023-06-22T07:09:41;8.88;;;4.00;;
69979;SDS011;57318;56.232;43.944;2023-06-22T07:12:07;8.80;;;3.90;;
69979;SDS011;57318;56.232;43.944;2023-06-22T07:14:33;8.63;;;4.00;;
69979;SDS011;57318;56.232;43.944;2023-06-22T07:16:59;8.23;;;4.15;;
69979;SDS011;57318;56.232;43.944;2023-06-22T07:19:27;6.93;;;3.85;;
69979;SDS011;57318;56.232;43.944;2023-06-22T07:21:53;6.72;;;3.40;;
69979;SDS011;57318;56.232;43.944;2023-06-22T07:24:23;5.22;;;3.70;;
69979;SDS011;57318;56.232;43.944;2023-06-22T07:26:50;6.45;;;3.97;;
69979;SDS011;57318;56.232;43.944;2023-06-22T07:29:17;5.93;;;3.60;;
69979;SDS011;57318;56.232;43.944;2023-06-22T07:31:43;8.75;;;4.40;;
69979;SDS011;57318;56.232;43.944;2023-06-22T07:34:10;10.13;;;4.18;;
69979;SDS011;57318;56.232;43.944;2023-06-22T07:36:36;6.50;;;4.30;;
69979;SDS011;57318;56.232;43.944;2023-06-22T07:39:04;6.13;;;4.20;;
69979;SDS011;57318;56.232;43.944;2023-06-22T07:41:30;5.13;;;3.95;;
69979;SDS011;57318;56.232;43.944;2023-06-22T07:43:57;4.53;;;3.13;;
69979;SDS011;57318;56.232;43.944;2023-06-22T07:46:23;3.90;;;3.43;;
69979;SDS011;57318;56.232;43.944;2023-06-22T07:48:49;4.03;;;3.63;;
69979;SDS011;57318;56.232;43.944;2023-06-22T07:51:15;5.88;;;3.70;;
69979;SDS011;57318;56.232;43.944;2023-06-22T07:53:41;4.95;;;3.45;;
69979;SDS011;57318;56.232;43.944;2023-06-22T07:56:10;7.43;;;3.60;;
69979;SDS011;57318;56.232;43.944;2023-06-22T07:58:36;4.10;;;3.60;;
69979;SDS011;57318;56.232;43.944;2023-06-22T08:01:02;5.47;;;3.58;;
69979;SDS011;57318;56.232;43.944;2023-06-22T08:05:54;5.38;;;3.47;;
69979;SDS011;57318;56.232;43.944;2023-06-22T08:08:20;5.35;;;3.67;;
69979;SDS011;57318;56.232;43.944;2023-06-22T08:10:46;7.78;;;3.70;;
69979;SDS011;57318;56.232;43.944;2023-06-22T08:13:13;7.50;;;3.90;;
69979;SDS011;57318;56.232;43.944;2023-06-22T08:15:39;10.55;;;4.00;;
69979;SDS011;57318;56.232;43.944;2023-06-22T08:18:05;5.93;;;3.50;;
69979;SDS011;57318;56.232;43.944;2023-06-22T08:20:31;8.18;;;3.42;;
69979;SDS011;57318;56.232;43.944;2023-06-22T08:22:57;9.23;;;3.63;;
69979;SDS011;57318;56.232;43.944;2023-06-22T08:25:25;4.38;;;3.00;;
69979;SDS011;57318;56.232;43.944;2023-06-22T08:27:51;8.35;;;3.95;;
69979;SDS011;57318;56.232;43.944;2023-06-22T08:30:17;5.35;;;3.83;;
69979;SDS011;57318;56.232;43.944;2023-06-22T08:32:48;6.25;;;3.92;;
69979;SDS011;57318;56.232;43.944;2023-06-22T08:35:14;7.28;;;3.85;;
69979;SDS011;57318;56.232;43.944;2023-06-22T08:40:07;4.65;;;3.20;;
69979;SDS011;57318;56.232;43.944;2023-06-22T08:42:35;5.80;;;3.05;;
69979;SDS011;57318;56.232;43.944;2023-06-22T08:45:02;5.65;;;4.15;;
69979;SDS011;57318;56.232;43.944;2023-06-22T08:47:33;5.25;;;3.45;;
69979;SDS011;57318;56.232;43.944;2023-06-22T08:49:59;5.22;;;3.70;;
69979;SDS011;57318;56.232;43.944;2023-06-22T08:52:30;8.43;;;3.88;;
69979;SDS011;57318;56.232;43.944;2023-06-22T08:54:56;5.00;;;3.70;;
69979;SDS011;57318;56.232;43.944;2023-06-22T08:57:23;9.98;;;3.72;;
69979;SDS011;57318;56.232;43.944;2023-06-22T09:02:17;9.77;;;3.80;;
69979;SDS011;57318;56.232;43.944;2023-06-22T09:04:43;9.90;;;4.10;;
69979;SDS011;57318;56.232;43.944;2023-06-22T09:07:08;6.30;;;3.90;;
69979;SDS011;57318;56.232;43.944;2023-06-22T09:09:34;5.53;;;3.90;;
69979;SDS011;57318;56.232;43.944;2023-06-22T09:12:00;4.22;;;3.83;;
69979;SDS011;57318;56.232;43.944;2023-06-22T09:14:25;4.72;;;4.10;;
69979;SDS011;57318;56.232;43.944;2023-06-22T09:16:51;4.15;;;3.83;;
69979;SDS011;57318;56.232;43.944;2023-06-22T09:19:17;4.75;;;3.83;;
69979;SDS011;57318;56.232;43.944;2023-06-22T09:21:42;4.45;;;4.03;;
69979;SDS011;57318;56.232;43.944;2023-06-22T09:24:08;5.53;;;3.58;;
69979;SDS011;57318;56.232;43.944;2023-06-22T09:26:34;3.78;;;3.47;;
69979;SDS011;57318;56.232;43.944;2023-06-22T09:28:59;3.55;;;3.25;;
69979;SDS011;57318;56.232;43.944;2023-06-22T09:31:25;3.63;;;3.00;;
69979;SDS011;57318;56.232;43.944;2023-06-22T09:33:52;10.50;;;3.53;;
69979;SDS011;57318;56.232;43.944;2023-06-22T09:36:20;4.40;;;3.65;;
69979;SDS011;57318;56.232;43.944;2023-06-22T09:38:47;5.00;;;4.50;;
69979;SDS011;57318;56.232;43.944;2023-06-22T09:41:13;5.93;;;4.05;;
69979;SDS011;57318;56.232;43.944;2023-06-22T09:43:39;4.13;;;3.83;;
69979;SDS011;57318;56.232;43.944;2023-06-22T09:46:05;4.55;;;4.13;;
69979;SDS011;57318;56.232;43.944;2023-06-22T09:48:32;3.75;;;3.45;;
69979;SDS011;57318;56.232;43.944;2023-06-22T09:50:58;4.03;;;3.55;;
69979;SDS011;57318;56.232;43.944;2023-06-22T09:53:24;4.45;;;3.88;;
69979;SDS011;57318;56.232;43.944;2023-06-22T09:55:49;4.13;;;3.70;;
69979;SDS011;57318;56.232;43.944;2023-06-22T09:58:15;9.52;;;4.00;;
69979;SDS011;57318;56.232;43.944;2023-06-22T10:00:41;5.05;;;4.55;;
69979;SDS011;57318;56.232;43.944;2023-06-22T10:03:06;4.47;;;4.07;;
69979;SDS011;57318;56.232;43.944;2023-06-22T10:05:32;6.03;;;5.45;;
69979;SDS011;57318;56.232;43.944;2023-06-22T10:07:58;5.90;;;4.63;;
69979;SDS011;57318;56.232;43.944;2023-06-22T10:10:24;4.80;;;4.20;;
69979;SDS011;57318;56.232;43.944;2023-06-22T10:12:56;5.38;;;3.83;;
69979;SDS011;57318;56.232;43.944;2023-06-22T10:15:23;4.50;;;4.10;;
69979;SDS011;57318;56.232;43.944;2023-06-22T10:17:49;6.18;;;3.80;;
69979;SDS011;57318;56.232;43.944;2023-06-22T10:20:15;4.68;;;4.10;;
69979;SDS011;57318;56.232;43.944;2023-06-22T10:22:43;5.45;;;4.05;;
69979;SDS011;57318;56.232;43.944;2023-06-22T10:25:10;4.50;;;4.07;;
69979;SDS011;57318;56.232;43.944;2023-06-22T10:27:37;3.85;;;3.30;;
69979;SDS011;57318;56.232;43.944;2023-06-22T10:30:10;5.95;;;3.90;;
69979;SDS011;57318;56.232;43.944;2023-06-22T10:32:41;6.05;;;4.43;;
69979;SDS011;57318;56.232;43.944;2023-06-22T10:35:08;5.90;;;3.58;;
69979;SDS011;57318;56.232;43.944;2023-06-22T10:37:36;4.50;;;4.10;;
69979;SDS011;57318;56.232;43.944;2023-06-22T10:40:02;5.00;;;3.80;;
69979;SDS011;57318;56.232;43.944;2023-06-22T10:42:29;6.50;;;3.92;;
69979;SDS011;57318;56.232;43.944;2023-06-22T10:44:55;4.43;;;3.40;;
69979;SDS011;57318;56.232;43.944;2023-06-22T10:47:21;5.88;;;3.53;;
69979;SDS011;57318;56.232;43.944;2023-06-22T10:49:46;4.10;;;3.80;;
69979;SDS011;57318;56.232;43.944;2023-06-22T10:52:12;7.00;;;3.70;;
69979;SDS011;57318;56.232;43.944;2023-06-22T10:54:38;4.78;;;3.55;;
69979;SDS011;57318;56.232;43.944;2023-06-22T10:57:03;5.78;;;4.10;;
69979;SDS011;57318;56.232;43.944;2023-06-22T10:59:30;7.80;;;4.18;;
69979;SDS011;57318;56.232;43.944;2023-06-22T11:04:21;4.45;;;3.30;;
69979;SDS011;57318;56.232;43.944;2023-06-22T11:09:13;5.05;;;3.58;;
69979;SDS011;57318;56.232;43.944;2023-06-22T11:11:43;7.32;;;4.10;;
69979;SDS011;57318;56.232;43.944;2023-06-22T11:14:10;5.35;;;3.63;;
69979;SDS011;57318;56.232;43.944;2023-06-22T11:16:36;5.00;;;3.65;;
69979;SDS011;57318;56.232;43.944;2023-06-22T11:19:01;3.90;;;3.60;;
69979;SDS011;57318;56.232;43.944;2023-06-22T11:21:28;3.92;;;3.53;;
69979;SDS011;57318;56.232;43.944;2023-06-22T11:23:54;3.85;;;3.55;;
69979;SDS011;57318;56.232;43.944;2023-06-22T11:26:20;5.07;;;3.85;;
69979;SDS011;57318;56.232;43.944;2023-06-22T11:28:46;5.45;;;3.70;;
69979;SDS011;57318;56.232;43.944;2023-06-22T11:31:12;5.22;;;3.60;;
69979;SDS011;57318;56.232;43.944;2023-06-22T11:33:38;3.90;;;3.20;;
69979;SDS011;57318;56.232;43.944;2023-06-22T11:36:04;4.32;;;3.35;;
69979;SDS011;57318;56.232;43.944;2023-06-22T11:38:30;4.95;;;3.63;;
69979;SDS011;57318;56.232;43.944;2023-06-22T11:40:57;3.35;;;3.10;;
69979;SDS011;57318;56.232;43.944;2023-06-22T11:43:23;4.20;;;3.40;;
69979;SDS011;57318;56.232;43.944;2023-06-22T11:45:49;4.00;;;3.63;;
69979;SDS011;57318;56.232;43.944;2023-06-22T11:48:15;3.47;;;3.17;;
69979;SDS011;57318;56.232;43.944;2023-06-22T11:50:41;3.58;;;3.28;;
69979;SDS011;57318;56.232;43.944;2023-06-22T11:53:07;4.03;;;3.30;;
69979;SDS011;57318;56.232;43.944;2023-06-22T11:55:33;3.45;;;3.13;;
69979;SDS011;57318;56.232;43.944;2023-06-22T11:57:58;3.80;;;3.40;;
69979;SDS011;57318;56.232;43.944;2023-06-22T12:00:27;4.10;;;3.00;;
69979;SDS011;57318;56.232;43.944;2023-06-22T12:02:53;4.25;;;3.38;;
69979;SDS011;57318;56.232;43.944;2023-06-22T12:05:19;5.75;;;3.30;;
69979;SDS011;57318;56.232;43.944;2023-06-22T12:07:49;4.65;;;3.20;;
69979;SDS011;57318;56.232;43.944;2023-06-22T12:10:15;3.58;;;3.28;;
69979;SDS011;57318;56.232;43.944;2023-06-22T12:12:41;5.28;;;3.60;;
69979;SDS011;57318;56.232;43.944;2023-06-22T12:15:08;3.67;;;3.13;;
69979;SDS011;57318;56.232;43.944;2023-06-22T12:17:37;4.40;;;3.38;;
69979;SDS011;57318;56.232;43.944;2023-06-22T12:20:03;4.00;;;3.60;;
69979;SDS011;57318;56.232;43.944;2023-06-22T12:22:31;3.90;;;3.50;;
69979;SDS011;57318;56.232;43.944;2023-06-22T12:24:57;5.53;;;3.40;;
69979;SDS011;57318;56.232;43.944;2023-06-22T12:27:23;3.20;;;2.80;;
69979;SDS011;57318;56.232;43.944;2023-06-22T12:29:49;5.28;;;3.30;;
69979;SDS011;57318;56.232;43.944;2023-06-22T12:32:14;3.55;;;3.13;;
69979;SDS011;57318;56.232;43.944;2023-06-22T12:34:41;3.42;;;3.13;;
69979;SDS011;57318;56.232;43.944;2023-06-22T12:37:07;5.15;;;3.55;;
69979;SDS011;57318;56.232;43.944;2023-06-22T12:39:33;4.18;;;3.58;;
69979;SDS011;57318;56.232;43.944;2023-06-22T12:41:59;4.53;;;3.50;;
69979;SDS011;57318;56.232;43.944;2023-06-22T12:44:27;6.72;;;4.00;;
69979;SDS011;57318;56.232;43.944;2023-06-22T12:46:53;4.35;;;3.45;;
69979;SDS011;57318;56.232;43.944;2023-06-22T12:49:19;4.97;;;3.50;;
69979;SDS011;57318;56.232;43.944;2023-06-22T12:51:44;3.83;;;3.50;;
69979;SDS011;57318;56.232;43.944;2023-06-22T12:54:10;4.45;;;3.85;;
69979;SDS011;57318;56.232;43.944;2023-06-22T12:56:37;4.00;;;3.50;;
69979;SDS011;57318;56.232;43.944;2023-06-22T12:59:04;5.20;;;3.58;;
69979;SDS011;57318;56.232;43.944;2023-06-22T13:01:32;6.93;;;4.20;;
69979;SDS011;57318;56.232;43.944;2023-06-22T13:03:58;21.77;;;4.10;;
69979;SDS011;57318;56.232;43.944;2023-06-22T13:06:24;5.15;;;3.35;;
69979;SDS011;57318;56.232;43.944;2023-06-22T13:08:51;7.60;;;3.58;;
69979;SDS011;57318;56.232;43.944;2023-06-22T13:13:43;4.10;;;3.60;;
69979;SDS011;57318;56.232;43.944;2023-06-22T13:16:10;4.03;;;3.45;;
69979;SDS011;57318;56.232;43.944;2023-06-22T13:18:35;4.68;;;3.70;;
69979;SDS011;57318;56.232;43.944;2023-06-22T13:21:01;4.97;;;3.58;;
69979;SDS011;57318;56.232;43.944;2023-06-22T13:25:53;4.32;;;3.63;;
69979;SDS011;57318;56.232;43.944;2023-06-22T13:28:19;6.28;;;3.60;;
69979;SDS011;57318;56.232;43.944;2023-06-22T13:30:46;3.90;;;3.50;;
69979;SDS011;57318;56.232;43.944;2023-06-22T13:33:13;5.53;;;3.50;;
69979;SDS011;57318;56.232;43.944;2023-06-22T13:38:04;5.82;;;3.58;;
69979;SDS011;57318;56.232;43.944;2023-06-22T13:40:30;5.47;;;3.42;;
69979;SDS011;57318;56.232;43.944;2023-06-22T13:42:56;5.40;;;3.45;;
69979;SDS011;57318;56.232;43.944;2023-06-22T13:45:22;3.63;;;3.10;;
69979;SDS011;57318;56.232;43.944;2023-06-22T13:47:47;4.40;;;3.58;;
69979;SDS011;57318;56.232;43.944;2023-06-22T13:50:13;4.35;;;3.40;;
69979;SDS011;57318;56.232;43.944;2023-06-22T13:52:39;5.13;;;3.45;;
69979;SDS011;57318;56.232;43.944;2023-06-22T13:55:05;3.80;;;3.38;;
69979;SDS011;57318;56.232;43.944;2023-06-22T13:57:32;4.28;;;3.88;;
69979;SDS011;57318;56.232;43.944;2023-06-22T13:59:59;6.38;;;3.72;;
69979;SDS011;57318;56.232;43.944;2023-06-22T14:02:25;4.30;;;3.70;;
69979;SDS011;57318;56.232;43.944;2023-06-22T14:04:52;3.95;;;3.55;;
69979;SDS011;57318;56.232;43.944;2023-06-22T14:07:17;4.20;;;3.35;;
69979;SDS011;57318;56.232;43.944;2023-06-22T14:09:44;6.20;;;3.65;;
69979;SDS011;57318;56.232;43.944;2023-06-22T14:14:36;4.93;;;3.80;;
69979;SDS011;57318;56.232;43.944;2023-06-22T14:17:02;5.18;;;3.78;;
69979;SDS011;57318;56.232;43.944;2023-06-22T14:19:29;4.38;;;3.90;;
69979;SDS011;57318;56.232;43.944;2023-06-22T14:24:21;3.80;;;3.40;;
69979;SDS011;57318;56.232;43.944;2023-06-22T14:26:48;4.55;;;3.53;;
69979;SDS011;57318;56.232;43.944;2023-06-22T14:29:13;5.28;;;3.42;;
69979;SDS011;57318;56.232;43.944;2023-06-22T14:31:39;6.43;;;3.60;;
69979;SDS011;57318;56.232;43.944;2023-06-22T14:34:05;11.88;;;3.75;;
69979;SDS011;57318;56.232;43.944;2023-06-22T14:36:31;4.00;;;3.58;;
69979;SDS011;57318;56.232;43.944;2023-06-22T14:38:57;5.30;;;3.60;;
69979;SDS011;57318;56.232;43.944;2023-06-22T14:41:23;5.63;;;3.72;;
69979;SDS011;57318;56.232;43.944;2023-06-22T14:43:49;5.38;;;3.88;;
69979;SDS011;57318;56.232;43.944;2023-06-22T14:46:17;4.25;;;3.75;;
69979;SDS011;57318;56.232;43.944;2023-06-22T14:48:43;6.05;;;3.50;;
69979;SDS011;57318;56.232;43.944;2023-06-22T14:51:10;5.95;;;3.85;;
69979;SDS011;57318;56.232;43.944;2023-06-22T14:53:39;3.53;;;3.20;;
69979;SDS011;57318;56.232;43.944;2023-06-22T14:56:05;4.97;;;3.45;;
69979;SDS011;57318;56.232;43.944;2023-06-22T14:58:31;4.35;;;3.38;;
69979;SDS011;57318;56.232;43.944;2023-06-22T15:01:03;7.75;;;3.70;;
69979;SDS011;57318;56.232;43.944;2023-06-22T15:03:33;5.00;;;4.20;;
69979;SDS011;57318;56.232;43.944;2023-06-22T15:06:01;4.25;;;3.63;;
69979;SDS011;57318;56.232;43.944;2023-06-22T15:08:27;3.83;;;3.40;;
69979;SDS011;57318;56.232;43.944;2023-06-22T15:13:20;5.20;;;3.95;;
69979;SDS011;57318;56.232;43.944;2023-06-22T15:15:48;4.85;;;3.47;;
69979;SDS011;57318;56.232;43.944;2023-06-22T15:18:15;3.90;;;3.50;;
69979;SDS011;57318;56.232;43.944;2023-06-22T15:20:41;4.80;;;3.70;;
69979;SDS011;57318;56.232;43.944;2023-06-22T15:23:11;8.00;;;3.65;;